sensor_id;sensor_type;location;lat;lon;timestamp;pressure;altitude;pressure_sealevel;temperature;humidity
70200;BME280;57587;55.688;37.600;2024-03-02T00:00:21;100784.09;;;4.77;61.70
70200;BME280;57587;55.688;37.600;2024-03-02T00:02:49;100786.97;;;4.74;61.97
70200;BME280;57587;55.688;37.600;2024-03-02T00:05:21;100789.03;;;4.70;62.26
70200;BME280;57587;55.688;37.600;2024-03-02T00:07:56;100787.34;;;4.69;62.29
70200;BME280;57587;55.688;37.600;2024-03-02T00:10:32;100772.50;;;4.55;62.22
70200;BME280;57587;55.688;37.600;2024-03-02T00:13:04;100767.91;;;4.57;62.61
70200;BME280;57587;55.688;37.600;2024-03-02T00:15:48;100773.19;;;4.57;62.27
70200;BME280;57587;55.688;37.600;2024-03-02T00:18:30;100776.00;;;4.56;62.65
70200;BME280;57587;55.688;37.600;2024-03-02T00:20:58;100777.66;;;4.57;62.39
70200;BME280;57587;55.688;37.600;2024-03-02T00:23:30;100769.84;;;4.55;62.85
70200;BME280;57587;55.688;37.600;2024-03-02T00:25:58;100766.31;;;4.55;62.20
70200;BME280;57587;55.688;37.600;2024-03-02T00:28:29;100765.38;;;4.56;62.37
70200;BME280;57587;55.688;37.600;2024-03-02T00:31:09;100766.47;;;4.53;62.18
70200;BME280;57587;55.688;37.600;2024-03-02T00:33:47;100765.47;;;4.54;62.28
70200;BME280;57587;55.688;37.600;2024-03-02T00:36:16;100770.91;;;4.53;62.69
70200;BME280;57587;55.688;37.600;2024-03-02T00:38:48;100767.44;;;4.63;63.09
70200;BME280;57587;55.688;37.600;2024-03-02T00:41:30;100770.47;;;4.59;62.32
70200;BME280;57587;55.688;37.600;2024-03-02T00:43:58;100762.59;;;4.57;63.05
70200;BME280;57587;55.688;37.600;2024-03-02T00:46:29;100762.84;;;4.54;62.44
70200;BME280;57587;55.688;37.600;2024-03-02T00:48:59;100774.69;;;4.61;62.73
70200;BME280;57587;55.688;37.600;2024-03-02T00:51:29;100774.94;;;4.70;62.67
70200;BME280;57587;55.688;37.600;2024-03-02T00:54:02;100770.38;;;4.72;62.98
70200;BME280;57587;55.688;37.600;2024-03-02T00:56:32;100775.06;;;4.79;62.30
70200;BME280;57587;55.688;37.600;2024-03-02T00:59:02;100774.84;;;4.82;61.71
70200;BME280;57587;55.688;37.600;2024-03-02T01:01:29;100773.38;;;4.78;61.46
70200;BME280;57587;55.688;37.600;2024-03-02T01:03:56;100784.00;;;4.78;62.31
70200;BME280;57587;55.688;37.600;2024-03-02T01:06:24;100785.91;;;4.76;62.13
70200;BME280;57587;55.688;37.600;2024-03-02T01:08:51;100785.56;;;4.81;62.20
70200;BME280;57587;55.688;37.600;2024-03-02T01:11:20;100784.50;;;4.83;62.66
70200;BME280;57587;55.688;37.600;2024-03-02T01:13:51;100782.56;;;4.85;61.90
70200;BME280;57587;55.688;37.600;2024-03-02T01:16:20;100786.41;;;4.81;62.71
70200;BME280;57587;55.688;37.600;2024-03-02T01:18:47;100785.44;;;4.82;61.51
70200;BME280;57587;55.688;37.600;2024-03-02T01:21:15;100790.66;;;4.84;61.53
70200;BME280;57587;55.688;37.600;2024-03-02T01:23:42;100790.88;;;4.81;61.19
70200;BME280;57587;55.688;37.600;2024-03-02T01:26:10;100786.88;;;4.75;61.34
70200;BME280;57587;55.688;37.600;2024-03-02T01:28:38;100791.59;;;4.83;62.06
70200;BME280;57587;55.688;37.600;2024-03-02T01:31:05;100784.25;;;4.87;62.27
70200;BME280;57587;55.688;37.600;2024-03-02T01:33:32;100779.56;;;4.90;62.31
70200;BME280;57587;55.688;37.600;2024-03-02T01:35:59;100780.91;;;4.96;62.08
70200;BME280;57587;55.688;37.600;2024-03-02T01:38:26;100785.09;;;4.98;61.20
70200;BME280;57587;55.688;37.600;2024-03-02T01:40:55;100780.78;;;4.97;61.20
70200;BME280;57587;55.688;37.600;2024-03-02T01:43:24;100789.19;;;4.91;62.08
70200;BME280;57587;55.688;37.600;2024-03-02T01:45:51;100786.03;;;4.86;61.17
70200;BME280;57587;55.688;37.600;2024-03-02T01:48:19;100784.25;;;4.87;61.20
70200;BME280;57587;55.688;37.600;2024-03-02T01:50:46;100782.69;;;4.84;61.51
70200;BME280;57587;55.688;37.600;2024-03-02T01:53:13;100775.94;;;4.91;61.36
70200;BME280;57587;55.688;37.600;2024-03-02T01:55:41;100777.63;;;4.92;60.99
70200;BME280;57587;55.688;37.600;2024-03-02T01:58:08;100773.06;;;4.94;60.96
70200;BME280;57587;55.688;37.600;2024-03-02T02:00:35;100786.78;;;4.88;62.03
70200;BME280;57587;55.688;37.600;2024-03-02T02:03:03;100776.78;;;4.92;61.01
70200;BME280;57587;55.688;37.600;2024-03-02T02:05:30;100792.69;;;4.92;61.84
70200;BME280;57587;55.688;37.600;2024-03-02T02:07:58;100787.66;;;5.00;61.13
70200;BME280;57587;55.688;37.600;2024-03-02T02:10:26;100795.00;;;4.96;61.05
70200;BME280;57587;55.688;37.600;2024-03-02T02:12:53;100793.06;;;4.87;61.06
70200;BME280;57587;55.688;37.600;2024-03-02T02:15:29;100794.47;;;4.80;61.09
70200;BME280;57587;55.688;37.600;2024-03-02T02:17:58;100795.06;;;4.72;61.58
70200;BME280;57587;55.688;37.600;2024-03-02T02:20:46;100789.63;;;4.74;61.73
70200;BME280;57587;55.688;37.600;2024-03-02T02:23:13;100794.00;;;4.75;61.57
70200;BME280;57587;55.688;37.600;2024-03-02T02:25:41;100795.44;;;4.79;61.91
70200;BME280;57587;55.688;37.600;2024-03-02T02:28:08;100788.09;;;4.82;61.41
70200;BME280;57587;55.688;37.600;2024-03-02T02:30:35;100789.81;;;4.83;61.18
70200;BME280;57587;55.688;37.600;2024-03-02T02:33:02;100799.31;;;4.86;61.94
70200;BME280;57587;55.688;37.600;2024-03-02T02:35:30;100799.06;;;4.89;61.54
70200;BME280;57587;55.688;37.600;2024-03-02T02:37:58;100795.94;;;4.84;61.14
70200;BME280;57587;55.688;37.600;2024-03-02T02:40:28;100800.66;;;4.80;61.92
70200;BME280;57587;55.688;37.600;2024-03-02T02:42:58;100801.63;;;4.91;61.97
70200;BME280;57587;55.688;37.600;2024-03-02T02:45:26;100800.78;;;4.90;61.84
70200;BME280;57587;55.688;37.600;2024-03-02T02:47:53;100807.31;;;4.97;61.48
70200;BME280;57587;55.688;37.600;2024-03-02T02:50:20;100802.97;;;4.96;61.40
70200;BME280;57587;55.688;37.600;2024-03-02T02:52:47;100793.53;;;4.92;61.62
70200;BME280;57587;55.688;37.600;2024-03-02T02:55:14;100804.03;;;4.94;60.95
70200;BME280;57587;55.688;37.600;2024-03-02T02:57:43;100802.22;;;4.94;61.21
70200;BME280;57587;55.688;37.600;2024-03-02T03:00:13;100798.97;;;4.91;61.31
70200;BME280;57587;55.688;37.600;2024-03-02T03:02:47;100804.38;;;4.89;61.63
70200;BME280;57587;55.688;37.600;2024-03-02T03:05:17;100804.13;;;4.92;60.97
70200;BME280;57587;55.688;37.600;2024-03-02T03:07:44;100799.81;;;4.91;61.77
70200;BME280;57587;55.688;37.600;2024-03-02T03:10:12;100801.03;;;4.87;61.04
70200;BME280;57587;55.688;37.600;2024-03-02T03:12:42;100810.66;;;4.88;60.99
70200;BME280;57587;55.688;37.600;2024-03-02T03:15:11;100809.22;;;4.84;61.79
70200;BME280;57587;55.688;37.600;2024-03-02T03:17:38;100808.97;;;4.87;61.77
70200;BME280;57587;55.688;37.600;2024-03-02T03:20:06;100811.63;;;4.87;61.24
70200;BME280;57587;55.688;37.600;2024-03-02T03:22:37;100808.84;;;4.89;60.90
70200;BME280;57587;55.688;37.600;2024-03-02T03:25:05;100808.97;;;4.87;61.22
70200;BME280;57587;55.688;37.600;2024-03-02T03:27:36;100813.06;;;4.91;60.65
70200;BME280;57587;55.688;37.600;2024-03-02T03:30:03;100802.69;;;4.88;60.61
70200;BME280;57587;55.688;37.600;2024-03-02T03:32:30;100806.41;;;4.85;60.82
70200;BME280;57587;55.688;37.600;2024-03-02T03:34:57;100800.41;;;4.83;60.45
70200;BME280;57587;55.688;37.600;2024-03-02T03:37:25;100802.19;;;4.83;61.17
70200;BME280;57587;55.688;37.600;2024-03-02T03:39:54;100794.13;;;4.84;61.08
70200;BME280;57587;55.688;37.600;2024-03-02T03:42:21;100798.09;;;4.79;61.15
70200;BME280;57587;55.688;37.600;2024-03-02T03:45:14;100795.81;;;4.74;61.21
70200;BME280;57587;55.688;37.600;2024-03-02T03:47:42;100783.94;;;4.67;61.06
70200;BME280;57587;55.688;37.600;2024-03-02T03:50:09;100801.94;;;4.75;60.91
70200;BME280;57587;55.688;37.600;2024-03-02T03:52:36;100802.13;;;4.60;61.26
70200;BME280;57587;55.688;37.600;2024-03-02T03:55:04;100804.31;;;4.55;61.51
70200;BME280;57587;55.688;37.600;2024-03-02T03:57:32;100797.19;;;4.56;61.62
70200;BME280;57587;55.688;37.600;2024-03-02T03:59:59;100796.34;;;4.55;62.13
70200;BME280;57587;55.688;37.600;2024-03-02T04:02:38;100780.81;;;4.62;61.22
70200;BME280;57587;55.688;37.600;2024-03-02T04:05:06;100791.06;;;4.67;62.02
70200;BME280;57587;55.688;37.600;2024-03-02T04:07:38;100790.13;;;4.68;61.60
70200;BME280;57587;55.688;37.600;2024-03-02T04:10:10;100787.94;;;4.73;61.33
70200;BME280;57587;55.688;37.600;2024-03-02T04:12:37;100796.66;;;4.75;61.11
70200;BME280;57587;55.688;37.600;2024-03-02T04:15:05;100785.75;;;4.67;61.59
70200;BME280;57587;55.688;37.600;2024-03-02T04:17:33;100796.38;;;4.67;61.63
70200;BME280;57587;55.688;37.600;2024-03-02T04:20:03;100808.19;;;4.62;61.86
70200;BME280;57587;55.688;37.600;2024-03-02T04:22:35;100801.81;;;4.65;62.16
70200;BME280;57587;55.688;37.600;2024-03-02T04:25:03;100800.50;;;4.71;61.52
70200;BME280;57587;55.688;37.600;2024-03-02T04:27:32;100804.31;;;4.67;62.03
70200;BME280;57587;55.688;37.600;2024-03-02T04:30:00;100809.16;;;4.61;61.31
70200;BME280;57587;55.688;37.600;2024-03-02T04:32:30;100795.91;;;4.61;61.49
70200;BME280;57587;55.688;37.600;2024-03-02T04:34:58;100800.97;;;4.65;61.77
70200;BME280;57587;55.688;37.600;2024-03-02T04:37:25;100798.50;;;4.50;61.81
70200;BME280;57587;55.688;37.600;2024-03-02T04:39:52;100810.53;;;4.54;62.46
70200;BME280;57587;55.688;37.600;2024-03-02T04:42:19;100803.84;;;4.61;62.32
70200;BME280;57587;55.688;37.600;2024-03-02T04:44:46;100806.03;;;4.68;61.70
70200;BME280;57587;55.688;37.600;2024-03-02T04:47:13;100800.09;;;4.64;61.13
70200;BME280;57587;55.688;37.600;2024-03-02T04:49:40;100802.59;;;4.54;61.68
70200;BME280;57587;55.688;37.600;2024-03-02T04:52:08;100809.38;;;4.58;62.15
70200;BME280;57587;55.688;37.600;2024-03-02T04:54:35;100811.78;;;4.61;62.05
70200;BME280;57587;55.688;37.600;2024-03-02T04:57:22;100808.56;;;4.69;61.74
70200;BME280;57587;55.688;37.600;2024-03-02T04:59:49;100804.22;;;4.68;62.24
70200;BME280;57587;55.688;37.600;2024-03-02T05:02:16;100804.31;;;4.67;61.07
70200;BME280;57587;55.688;37.600;2024-03-02T05:04:43;100809.41;;;4.70;61.25
70200;BME280;57587;55.688;37.600;2024-03-02T05:07:10;100803.84;;;4.73;61.30
70200;BME280;57587;55.688;37.600;2024-03-02T05:09:38;100808.19;;;4.74;61.17
70200;BME280;57587;55.688;37.600;2024-03-02T05:12:05;100804.69;;;4.73;60.81
70200;BME280;57587;55.688;37.600;2024-03-02T05:14:32;100803.03;;;4.72;60.56
70200;BME280;57587;55.688;37.600;2024-03-02T05:16:59;100791.56;;;4.72;60.62
70200;BME280;57587;55.688;37.600;2024-03-02T05:19:27;100803.03;;;4.72;60.92
70200;BME280;57587;55.688;37.600;2024-03-02T05:21:54;100799.63;;;4.70;60.82
70200;BME280;57587;55.688;37.600;2024-03-02T05:24:21;100799.53;;;4.72;61.19
70200;BME280;57587;55.688;37.600;2024-03-02T05:26:48;100801.22;;;4.73;60.55
70200;BME280;57587;55.688;37.600;2024-03-02T05:29:16;100804.84;;;4.72;60.58
70200;BME280;57587;55.688;37.600;2024-03-02T05:31:43;100803.63;;;4.76;61.66
70200;BME280;57587;55.688;37.600;2024-03-02T05:34:10;100801.59;;;4.79;60.78
70200;BME280;57587;55.688;37.600;2024-03-02T05:36:38;100801.72;;;4.78;60.23
70200;BME280;57587;55.688;37.600;2024-03-02T05:39:06;100810.09;;;4.60;61.27
70200;BME280;57587;55.688;37.600;2024-03-02T05:41:36;100804.41;;;4.54;61.28
70200;BME280;57587;55.688;37.600;2024-03-02T05:44:03;100815.63;;;4.57;61.29
70200;BME280;57587;55.688;37.600;2024-03-02T05:46:30;100810.09;;;4.60;60.94
70200;BME280;57587;55.688;37.600;2024-03-02T05:49:01;100814.53;;;4.60;61.33
70200;BME280;57587;55.688;37.600;2024-03-02T05:51:28;100809.38;;;4.58;61.74
70200;BME280;57587;55.688;37.600;2024-03-02T05:53:56;100816.31;;;4.48;61.40
70200;BME280;57587;55.688;37.600;2024-03-02T05:56:23;100816.06;;;4.51;61.52
70200;BME280;57587;55.688;37.600;2024-03-02T05:58:50;100814.44;;;4.61;60.93
70200;BME280;57587;55.688;37.600;2024-03-02T06:01:41;100816.22;;;4.61;60.76
70200;BME280;57587;55.688;37.600;2024-03-02T06:04:10;100817.72;;;4.65;60.83
70200;BME280;57587;55.688;37.600;2024-03-02T06:06:40;100817.84;;;4.75;61.46
70200;BME280;57587;55.688;37.600;2024-03-02T06:09:08;100817.41;;;4.81;60.57
70200;BME280;57587;55.688;37.600;2024-03-02T06:11:35;100821.97;;;4.79;60.51
70200;BME280;57587;55.688;37.600;2024-03-02T06:14:09;100824.22;;;4.72;60.65
70200;BME280;57587;55.688;37.600;2024-03-02T06:16:36;100827.25;;;4.68;60.64
70200;BME280;57587;55.688;37.600;2024-03-02T06:19:03;100822.16;;;4.65;60.61
70200;BME280;57587;55.688;37.600;2024-03-02T06:21:30;100823.00;;;4.65;60.90
70200;BME280;57587;55.688;37.600;2024-03-02T06:23:57;100833.47;;;4.67;60.75
70200;BME280;57587;55.688;37.600;2024-03-02T06:26:25;100824.34;;;4.71;60.43
70200;BME280;57587;55.688;37.600;2024-03-02T06:28:52;100825.06;;;4.73;60.64
70200;BME280;57587;55.688;37.600;2024-03-02T06:31:19;100819.91;;;4.82;60.67
70200;BME280;57587;55.688;37.600;2024-03-02T06:33:46;100805.13;;;4.91;60.39
70200;BME280;57587;55.688;37.600;2024-03-02T06:36:13;100825.16;;;5.06;59.60
70200;BME280;57587;55.688;37.600;2024-03-02T06:38:42;100812.88;;;5.17;59.22
70200;BME280;57587;55.688;37.600;2024-03-02T06:41:09;100817.69;;;5.23;59.18
70200;BME280;57587;55.688;37.600;2024-03-02T06:43:37;100815.53;;;5.28;59.13
70200;BME280;57587;55.688;37.600;2024-03-02T06:46:05;100823.53;;;5.39;58.55
70200;BME280;57587;55.688;37.600;2024-03-02T06:48:36;100808.78;;;5.35;58.49
70200;BME280;57587;55.688;37.600;2024-03-02T06:51:04;100818.69;;;5.44;58.66
70200;BME280;57587;55.688;37.600;2024-03-02T06:53:31;100821.59;;;5.52;58.44
70200;BME280;57587;55.688;37.600;2024-03-02T06:56:00;100832.06;;;5.54;58.24
70200;BME280;57587;55.688;37.600;2024-03-02T06:58:27;100831.72;;;5.59;57.49
70200;BME280;57587;55.688;37.600;2024-03-02T07:00:54;100830.50;;;5.63;57.68
70200;BME280;57587;55.688;37.600;2024-03-02T07:03:21;100831.00;;;5.57;57.53
70200;BME280;57587;55.688;37.600;2024-03-02T07:05:49;100832.56;;;5.70;57.86
70200;BME280;57587;55.688;37.600;2024-03-02T07:08:16;100834.84;;;5.75;57.46
70200;BME280;57587;55.688;37.600;2024-03-02T07:10:43;100829.19;;;5.80;57.04
70200;BME280;57587;55.688;37.600;2024-03-02T07:13:10;100835.78;;;5.85;56.96
70200;BME280;57587;55.688;37.600;2024-03-02T07:15:37;100835.56;;;5.88;57.18
70200;BME280;57587;55.688;37.600;2024-03-02T07:18:21;100818.91;;;5.97;56.80
70200;BME280;57587;55.688;37.600;2024-03-02T07:20:48;100832.19;;;6.09;56.38
70200;BME280;57587;55.688;37.600;2024-03-02T07:23:16;100834.81;;;6.20;55.84
70200;BME280;57587;55.688;37.600;2024-03-02T07:25:43;100829.59;;;6.30;55.82
70200;BME280;57587;55.688;37.600;2024-03-02T07:28:13;100828.25;;;6.35;55.15
70200;BME280;57587;55.688;37.600;2024-03-02T07:30:41;100823.03;;;6.45;54.98
70200;BME280;57587;55.688;37.600;2024-03-02T07:33:08;100828.09;;;6.48;54.47
70200;BME280;57587;55.688;37.600;2024-03-02T07:35:35;100823.94;;;6.55;54.59
70200;BME280;57587;55.688;37.600;2024-03-02T07:38:02;100823.56;;;6.60;54.02
70200;BME280;57587;55.688;37.600;2024-03-02T07:40:30;100830.16;;;6.65;53.93
70200;BME280;57587;55.688;37.600;2024-03-02T07:43:00;100824.09;;;6.75;53.65
70200;BME280;57587;55.688;37.600;2024-03-02T07:45:27;100813.66;;;6.83;53.35
70200;BME280;57587;55.688;37.600;2024-03-02T07:47:54;100813.66;;;6.83;53.13
70200;BME280;57587;55.688;37.600;2024-03-02T07:50:21;100811.06;;;6.92;53.11
70200;BME280;57587;55.688;37.600;2024-03-02T07:52:49;100808.97;;;7.17;52.73
70200;BME280;57587;55.688;37.600;2024-03-02T07:55:16;100805.47;;;7.47;51.80
70200;BME280;57587;55.688;37.600;2024-03-02T07:57:43;100806.25;;;7.69;51.15
70200;BME280;57587;55.688;37.600;2024-03-02T08:00:11;100810.41;;;8.02;50.73
70200;BME280;57587;55.688;37.600;2024-03-02T08:02:39;100814.53;;;8.25;49.44
70200;BME280;57587;55.688;37.600;2024-03-02T08:05:07;100804.31;;;8.60;49.06
70200;BME280;57587;55.688;37.600;2024-03-02T08:07:40;100795.53;;;9.16;48.09
70200;BME280;57587;55.688;37.600;2024-03-02T08:10:10;100806.31;;;10.16;45.40
70200;BME280;57587;55.688;37.600;2024-03-02T08:12:37;100802.59;;;10.81;44.05
70200;BME280;57587;55.688;37.600;2024-03-02T08:15:05;100798.56;;;11.63;42.32
70200;BME280;57587;55.688;37.600;2024-03-02T08:17:35;100799.41;;;11.90;40.59
70200;BME280;57587;55.688;37.600;2024-03-02T08:20:05;100798.00;;;12.69;40.50
70200;BME280;57587;55.688;37.600;2024-03-02T08:22:33;100804.38;;;13.17;38.77
70200;BME280;57587;55.688;37.600;2024-03-02T08:25:02;100805.28;;;13.96;37.75
70200;BME280;57587;55.688;37.600;2024-03-02T08:27:31;100792.19;;;13.93;36.81
70200;BME280;57587;55.688;37.600;2024-03-02T08:29:59;100798.44;;;13.94;36.93
70200;BME280;57587;55.688;37.600;2024-03-02T08:32:27;100794.53;;;14.50;35.85
70200;BME280;57587;55.688;37.600;2024-03-02T08:34:54;100802.31;;;14.45;35.62
70200;BME280;57587;55.688;37.600;2024-03-02T08:37:21;100802.78;;;14.26;36.07
70200;BME280;57587;55.688;37.600;2024-03-02T08:39:48;100796.91;;;14.22;36.00
70200;BME280;57587;55.688;37.600;2024-03-02T08:42:17;100803.25;;;14.06;35.76
70200;BME280;57587;55.688;37.600;2024-03-02T08:44:47;100811.66;;;13.64;36.36
70200;BME280;57587;55.688;37.600;2024-03-02T08:47:15;100802.84;;;13.31;36.84
70200;BME280;57587;55.688;37.600;2024-03-02T08:49:42;100800.00;;;13.00;37.66
70200;BME280;57587;55.688;37.600;2024-03-02T08:52:09;100803.03;;;12.39;38.85
70200;BME280;57587;55.688;37.600;2024-03-02T08:59:14;100805.59;;;11.30;40.97
70200;BME280;57587;55.688;37.600;2024-03-02T09:01:41;100795.72;;;11.04;41.56
70200;BME280;57587;55.688;37.600;2024-03-02T09:04:09;100797.50;;;10.70;41.85
70200;BME280;57587;55.688;37.600;2024-03-02T09:06:36;100793.81;;;10.53;42.75
70200;BME280;57587;55.688;37.600;2024-03-02T09:09:03;100803.41;;;10.37;42.99
70200;BME280;57587;55.688;37.600;2024-03-02T09:11:31;100796.94;;;10.30;43.95
70200;BME280;57587;55.688;37.600;2024-03-02T09:13:59;100789.84;;;10.39;43.39
70200;BME280;57587;55.688;37.600;2024-03-02T09:16:28;100788.53;;;10.25;43.80
70200;BME280;57587;55.688;37.600;2024-03-02T09:18:58;100797.44;;;9.98;43.85
70200;BME280;57587;55.688;37.600;2024-03-02T09:21:25;100799.72;;;9.28;45.75
70200;BME280;57587;55.688;37.600;2024-03-02T09:23:52;100794.78;;;8.76;46.29
70200;BME280;57587;55.688;37.600;2024-03-02T09:26:21;100788.56;;;8.95;46.54
70200;BME280;57587;55.688;37.600;2024-03-02T09:28:48;100790.47;;;9.13;46.93
70200;BME280;57587;55.688;37.600;2024-03-02T09:31:15;100789.59;;;9.22;45.88
70200;BME280;57587;55.688;37.600;2024-03-02T09:33:42;100784.75;;;9.45;45.70
70200;BME280;57587;55.688;37.600;2024-03-02T09:36:17;100791.38;;;9.41;45.32
70200;BME280;57587;55.688;37.600;2024-03-02T09:38:45;100791.44;;;9.59;45.76
70200;BME280;57587;55.688;37.600;2024-03-02T09:41:12;100786.44;;;8.99;45.79
70200;BME280;57587;55.688;37.600;2024-03-02T09:43:40;100787.44;;;8.88;46.10
70200;BME280;57587;55.688;37.600;2024-03-02T09:46:10;100776.25;;;8.65;46.89
70200;BME280;57587;55.688;37.600;2024-03-02T09:48:38;100781.03;;;8.52;47.34
70200;BME280;57587;55.688;37.600;2024-03-02T09:51:05;100776.19;;;8.26;47.41
70200;BME280;57587;55.688;37.600;2024-03-02T09:53:33;100787.56;;;8.09;48.12
70200;BME280;57587;55.688;37.600;2024-03-02T09:56:01;100776.44;;;7.84;48.36
70200;BME280;57587;55.688;37.600;2024-03-02T09:58:51;100792.59;;;7.52;49.34
70200;BME280;57587;55.688;37.600;2024-03-02T10:01:18;100788.25;;;7.51;49.33
70200;BME280;57587;55.688;37.600;2024-03-02T10:03:47;100784.72;;;7.41;50.00
70200;BME280;57587;55.688;37.600;2024-03-02T10:06:20;100793.34;;;7.33;50.38
70200;BME280;57587;55.688;37.600;2024-03-02T10:08:48;100780.16;;;7.22;50.77
70200;BME280;57587;55.688;37.600;2024-03-02T10:11:45;100777.97;;;7.77;49.19
70200;BME280;57587;55.688;37.600;2024-03-02T10:14:14;100778.38;;;7.73;49.16
70200;BME280;57587;55.688;37.600;2024-03-02T10:16:43;100785.53;;;7.72;49.71
70200;BME280;57587;55.688;37.600;2024-03-02T10:19:21;100784.72;;;7.91;49.28
70200;BME280;57587;55.688;37.600;2024-03-02T10:21:55;100780.13;;;7.93;49.64
70200;BME280;57587;55.688;37.600;2024-03-02T10:24:26;100782.38;;;8.17;49.04
70200;BME280;57587;55.688;37.600;2024-03-02T10:26:53;100779.66;;;7.88;49.02
70200;BME280;57587;55.688;37.600;2024-03-02T10:29:21;100793.03;;;8.07;49.44
70200;BME280;57587;55.688;37.600;2024-03-02T10:31:48;100782.03;;;7.81;49.17
70200;BME280;57587;55.688;37.600;2024-03-02T10:34:15;100785.44;;;7.83;49.04
70200;BME280;57587;55.688;37.600;2024-03-02T10:36:46;100787.69;;;7.98;48.91
70200;BME280;57587;55.688;37.600;2024-03-02T10:39:14;100792.75;;;8.20;48.81
70200;BME280;57587;55.688;37.600;2024-03-02T10:41:41;100787.44;;;8.20;48.18
70200;BME280;57587;55.688;37.600;2024-03-02T10:44:09;100784.91;;;8.19;47.85
70200;BME280;57587;55.688;37.600;2024-03-02T10:46:37;100792.09;;;8.38;47.76
70200;BME280;57587;55.688;37.600;2024-03-02T10:49:05;100786.91;;;8.75;48.39
70200;BME280;57587;55.688;37.600;2024-03-02T10:51:35;100793.81;;;9.24;46.78
70200;BME280;57587;55.688;37.600;2024-03-02T10:54:05;100794.56;;;9.54;45.12
70200;BME280;57587;55.688;37.600;2024-03-02T10:56:38;100796.28;;;10.01;44.65
70200;BME280;57587;55.688;37.600;2024-03-02T10:59:27;100794.53;;;10.09;43.77
70200;BME280;57587;55.688;37.600;2024-03-02T11:02:00;100796.19;;;9.65;44.11
70200;BME280;57587;55.688;37.600;2024-03-02T11:04:32;100795.06;;;9.67;44.68
70200;BME280;57587;55.688;37.600;2024-03-02T11:07:18;100793.88;;;9.52;45.18
70200;BME280;57587;55.688;37.600;2024-03-02T11:09:59;100784.38;;;9.30;45.30
70200;BME280;57587;55.688;37.600;2024-03-02T11:12:31;100793.84;;;9.15;45.38
70200;BME280;57587;55.688;37.600;2024-03-02T11:15:08;100789.66;;;9.03;45.96
70200;BME280;57587;55.688;37.600;2024-03-02T11:17:36;100785.50;;;8.81;46.05
70200;BME280;57587;55.688;37.600;2024-03-02T11:20:05;100794.91;;;8.65;46.72
70200;BME280;57587;55.688;37.600;2024-03-02T11:22:36;100782.13;;;8.69;46.82
70200;BME280;57587;55.688;37.600;2024-03-02T11:25:03;100788.88;;;8.63;46.50
70200;BME280;57587;55.688;37.600;2024-03-02T11:33:00;100785.50;;;8.51;46.84
70200;BME280;57587;55.688;37.600;2024-03-02T11:35:34;100784.38;;;8.54;47.10
70200;BME280;57587;55.688;37.600;2024-03-02T11:38:01;100787.75;;;8.56;46.97
70200;BME280;57587;55.688;37.600;2024-03-02T11:40:30;100775.28;;;8.47;47.20
70200;BME280;57587;55.688;37.600;2024-03-02T11:42:59;100767.81;;;8.21;47.39
70200;BME280;57587;55.688;37.600;2024-03-02T11:45:27;100768.09;;;8.28;47.53
70200;BME280;57587;55.688;37.600;2024-03-02T11:47:56;100766.81;;;8.22;47.67
70200;BME280;57587;55.688;37.600;2024-03-02T11:50:31;100774.38;;;8.17;48.31
70200;BME280;57587;55.688;37.600;2024-03-02T11:53:00;100779.16;;;8.14;48.49
70200;BME280;57587;55.688;37.600;2024-03-02T11:55:28;100776.63;;;8.12;47.93
70200;BME280;57587;55.688;37.600;2024-03-02T11:57:58;100770.56;;;8.00;48.50
70200;BME280;57587;55.688;37.600;2024-03-02T12:00:26;100772.97;;;8.03;48.77
70200;BME280;57587;55.688;37.600;2024-03-02T12:03:07;100772.13;;;8.03;48.91
70200;BME280;57587;55.688;37.600;2024-03-02T12:05:35;100770.59;;;8.10;48.57
70200;BME280;57587;55.688;37.600;2024-03-02T12:08:05;100771.56;;;8.09;49.37
70200;BME280;57587;55.688;37.600;2024-03-02T12:10:34;100766.63;;;7.95;48.30
70200;BME280;57587;55.688;37.600;2024-03-02T12:13:03;100764.66;;;7.77;48.91
70200;BME280;57587;55.688;37.600;2024-03-02T12:15:35;100776.13;;;7.28;49.37
70200;BME280;57587;55.688;37.600;2024-03-02T12:18:06;100763.88;;;7.15;50.14
70200;BME280;57587;55.688;37.600;2024-03-02T12:20:33;100772.19;;;7.01;50.11
70200;BME280;57587;55.688;37.600;2024-03-02T12:23:02;100773.44;;;6.76;51.02
70200;BME280;57587;55.688;37.600;2024-03-02T12:25:31;100771.28;;;6.91;51.15
70200;BME280;57587;55.688;37.600;2024-03-02T12:28:01;100772.72;;;6.74;50.22
70200;BME280;57587;55.688;37.600;2024-03-02T12:30:30;100764.09;;;6.61;49.68
70200;BME280;57587;55.688;37.600;2024-03-02T12:32:58;100769.91;;;6.55;50.89
70200;BME280;57587;55.688;37.600;2024-03-02T12:35:25;100769.09;;;6.54;50.20
70200;BME280;57587;55.688;37.600;2024-03-02T12:37:54;100781.84;;;6.39;49.51
70200;BME280;57587;55.688;37.600;2024-03-02T12:40:21;100778.66;;;6.45;49.81
70200;BME280;57587;55.688;37.600;2024-03-02T12:42:50;100776.34;;;6.52;48.77
70200;BME280;57587;55.688;37.600;2024-03-02T12:45:18;100763.28;;;6.49;49.09
70200;BME280;57587;55.688;37.600;2024-03-02T12:47:55;100768.91;;;6.35;47.47
70200;BME280;57587;55.688;37.600;2024-03-02T12:50:22;100763.50;;;6.25;47.78
70200;BME280;57587;55.688;37.600;2024-03-02T12:52:53;100771.44;;;6.36;47.53
70200;BME280;57587;55.688;37.600;2024-03-02T12:55:21;100762.13;;;6.42;47.58
70200;BME280;57587;55.688;37.600;2024-03-02T12:57:52;100768.75;;;6.47;47.07
70200;BME280;57587;55.688;37.600;2024-03-02T13:00:21;100765.75;;;6.62;47.34
70200;BME280;57587;55.688;37.600;2024-03-02T13:02:50;100779.53;;;6.67;46.81
70200;BME280;57587;55.688;37.600;2024-03-02T13:05:19;100774.13;;;6.36;46.78
70200;BME280;57587;55.688;37.600;2024-03-02T13:07:48;100775.41;;;6.10;47.07
70200;BME280;57587;55.688;37.600;2024-03-02T13:10:16;100778.19;;;6.08;47.66